Time;durP1;ratioP1;P1;durP2;ratioP2;P2;SDS_P1;SDS_P2;PMS_P1;PMS_P2;Temp;Humidity;BMP_temperature;BMP_pressure;BME280_temperature;BME280_humidity;BME280_pressure;Samples;Min_cycle;Max_cycle;Signal;HPM_P1;HPM_P2
2021/11/17 02:26:05;;;;;;;19.97;11.63;;;;;;;;;;5028172;28;20270;-71
2021/11/17 02:28:37;;;;;;;23.27;11.67;;;;;;;;;;5029078;28;20226;-71
2021/11/17 02:31:21;;;;;;;18.93;10.83;;;;;;;;;;5028373;28;20223;-71
2021/11/17 02:34:06;;;;;;;21.27;11.03;;;;;;;;;;5032566;28;20306;-71
2021/11/17 02:36:49;;;;;;;17.53;10.50;;;;;;;;;;5049305;28;20219;-72
2021/11/17 02:39:42;;;;;;;21.37;12.57;;;;;;;;;;5032870;28;20264;-71
2021/11/17 02:42:42;;;;;;;18.63;10.97;;;;;;;;;;5028455;28;20213;-72
2021/11/17 02:45:42;;;;;;;18.83;11.43;;;;;;;;;;4975171;28;20647;-72
2021/11/17 02:48:28;;;;;;;13.83;9.17;;;;;;;;;;5033149;28;20214;-73
2021/11/17 02:51:12;;;;;;;14.07;8.63;;;;;;;;;;5019853;28;20874;-71
2021/11/17 02:53:44;;;;;;;12.03;6.63;;;;;;;;;;5044600;28;20721;-71
2021/11/17 02:56:31;;;;;;;9.80;7.23;;;;;;;;;;5029218;28;20693;-72
2021/11/17 02:59:24;;;;;;;11.33;7.37;;;;;;;;;;5032170;28;20697;-72
2021/11/17 03:02:20;;;;;;;11.37;7.40;;;;;;;;;;5034157;28;20220;-72
2021/11/17 03:05:11;;;;;;;11.13;6.93;;;;;;;;;;4959860;28;20283;-73
2021/11/17 03:08:00;;;;;;;11.23;7.87;;;;;;;;;;5029232;28;20315;-73
2021/11/17 03:10:36;;;;;;;13.60;7.30;;;;;;;;;;5026745;28;20223;-73
2021/11/17 03:13:05;;;;;;;12.43;7.53;;;;;;;;;;5023713;28;20219;-71
2021/11/17 03:16:00;;;;;;;9.43;6.60;;;;;;;;;;5024417;28;20228;-74
2021/11/17 03:18:43;;;;;;;11.80;6.47;;;;;;;;;;5024879;28;20247;-74
2021/11/17 03:21:53;;;;;;;13.87;8.37;;;;;;;;;;5031120;28;20322;-72
2021/11/17 03:24:46;;;;;;;12.80;7.97;;;;;;;;;;5001837;28;20312;-73
2021/11/17 03:27:35;;;;;;;11.73;7.53;;;;;;;;;;5013198;28;20217;-71
2021/11/17 03:30:46;;;;;;;13.57;7.83;;;;;;;;;;5000148;28;20224;-72
2021/11/17 03:33:36;;;;;;;13.70;7.87;;;;;;;;;;5009581;28;20949;-72
2021/11/17 03:36:37;;;;;;;13.07;8.20;;;;;;;;;;5017348;28;20223;-73
2021/11/17 03:39:31;;;;;;;13.07;7.13;;;;;;;;;;5017835;28;20220;-72
2021/11/17 03:42:19;;;;;;;15.07;8.30;;;;;;;;;;5029342;28;20211;-72
2021/11/17 03:45:02;;;;;;;12.77;8.10;;;;;;;;;;5032127;28;20228;-72
2021/11/17 03:48:15;;;;;;;14.73;8.50;;;;;;;;;;5032096;28;20274;-72
2021/11/17 03:51:33;;;;;;;14.23;8.27;;;;;;;;;;5021446;28;20292;-73
2021/11/17 03:54:23;;;;;;;12.37;7.23;;;;;;;;;;4988772;28;20270;-71
2021/11/17 03:57:07;;;;;;;14.53;8.90;;;;;;;;;;5033615;28;20250;-71
2021/11/17 03:59:41;;;;;;;13.37;8.40;;;;;;;;;;5052374;28;20290;-72
2021/11/17 04:02:39;;;;;;;12.33;7.83;;;;;;;;;;5052947;28;20255;-71
2021/11/17 04:05:28;;;;;;;14.60;8.30;;;;;;;;;;5026503;28;20235;-72
2021/11/17 04:08:20;;;;;;;13.57;7.77;;;;;;;;;;5044454;28;20315;-71
2021/11/17 04:11:03;;;;;;;16.00;9.43;;;;;;;;;;5043494;28;20271;-72
2021/11/17 04:13:59;;;;;;;15.33;8.83;;;;;;;;;;5042364;28;20219;-72
2021/11/17 04:16:42;;;;;;;14.40;8.43;;;;;;;;;;5030430;28;20325;-71
2021/11/17 04:19:21;;;;;;;12.83;8.33;;;;;;;;;;5031062;28;20223;-73
2021/11/17 04:21:57;;;;;;;15.23;8.77;;;;;;;;;;5037181;28;20227;-71
2021/11/17 04:24:33;;;;;;;13.40;7.87;;;;;;;;;;5045730;28;20246;-72
2021/11/17 04:27:14;;;;;;;14.67;8.57;;;;;;;;;;5035072;28;20278;-72
2021/11/17 04:30:14;;;;;;;26.73;15.53;;;;;;;;;;5030881;28;20601;-72
2021/11/17 04:32:44;;;;;;;33.07;19.43;;;;;;;;;;5027775;28;20213;-72
2021/11/17 04:35:30;;;;;;;27.37;17.53;;;;;;;;;;5011268;28;20225;-72
2021/11/17 04:37:59;;;;;;;22.50;13.90;;;;;;;;;;4995029;28;20690;-72
2021/11/17 04:40:48;;;;;;;16.60;10.53;;;;;;;;;;5013511;28;20228;-72
2021/11/17 04:43:34;;;;;;;15.50;9.37;;;;;;;;;;5022951;28;20255;-72
2021/11/17 04:46:15;;;;;;;14.83;8.57;;;;;;;;;;5030536;28;20783;-72
2021/11/17 04:48:55;;;;;;;17.37;9.70;;;;;;;;;;5030284;28;20224;-72
2021/11/17 04:51:27;;;;;;;15.53;8.63;;;;;;;;;;5031564;28;20724;-72
2021/11/17 04:54:29;;;;;;;18.40;9.47;;;;;;;;;;5031616;28;20914;-72
2021/11/17 04:57:13;;;;;;;14.13;9.03;;;;;;;;;;5045375;28;20223;-73
2021/11/17 05:00:03;;;;;;;17.17;9.60;;;;;;;;;;5029603;28;20223;-72
2021/11/17 05:02:44;;;;;;;16.93;9.33;;;;;;;;;;5026356;28;20243;-73
2021/11/17 05:05:29;;;;;;;16.00;8.93;;;;;;;;;;5029288;28;20232;-72
2021/11/17 05:08:06;;;;;;;18.33;9.27;;;;;;;;;;5031827;28;20228;-72
2021/11/17 05:10:43;;;;;;;16.43;9.13;;;;;;;;;;5013130;28;20226;-72
2021/11/17 05:13:12;;;;;;;16.87;9.00;;;;;;;;;;5028973;28;20298;-74
2021/11/17 05:15:50;;;;;;;17.87;9.67;;;;;;;;;;5029306;28;20216;-71
2021/11/17 05:18:28;;;;;;;14.60;9.37;;;;;;;;;;5030776;28;20211;-72
2021/11/17 05:21:14;;;;;;;18.93;9.17;;;;;;;;;;5015620;28;20232;-71
2021/11/17 05:23:46;;;;;;;15.97;9.30;;;;;;;;;;5033919;28;20232;-72
2021/11/17 05:26:14;;;;;;;16.67;9.30;;;;;;;;;;5029296;28;20607;-72
2021/11/17 05:29:07;;;;;;;16.73;9.83;;;;;;;;;;5030981;28;20226;-72
2021/11/17 05:32:12;;;;;;;18.03;9.60;;;;;;;;;;5031147;28;20657;-73
2021/11/17 05:34:55;;;;;;;15.20;9.37;;;;;;;;;;5029112;28;20232;-72
2021/11/17 05:37:36;;;;;;;19.37;10.60;;;;;;;;;;5009238;28;20225;-72
2021/11/17 05:40:26;;;;;;;22.17;10.67;;;;;;;;;;5028960;28;20228;-71
2021/11/17 05:42:55;;;;;;;17.23;10.30;;;;;;;;;;5029354;28;20263;-73
2021/11/17 05:46:00;;;;;;;19.53;10.93;;;;;;;;;;5019707;28;20308;-72
2021/11/17 05:49:07;;;;;;;17.77;10.20;;;;;;;;;;5029430;28;20220;-71
2021/11/17 05:52:00;;;;;;;20.57;11.20;;;;;;;;;;5003351;28;20247;-72
2021/11/17 05:55:04;;;;;;;24.07;11.27;;;;;;;;;;5039435;28;20219;-73
2021/11/17 05:57:51;;;;;;;21.50;11.80;;;;;;;;;;5046531;28;20227;-72
2021/11/17 06:00:32;;;;;;;26.80;12.90;;;;;;;;;;5029357;28;20231;-73
2021/11/17 06:03:09;;;;;;;22.13;10.93;;;;;;;;;;5029927;28;20273;-73
2021/11/17 06:05:34;;;;;;;20.67;11.10;;;;;;;;;;5028998;28;20224;-70
2021/11/17 06:08:00;;;;;;;20.57;11.93;;;;;;;;;;5029192;28;20269;-71
2021/11/17 06:10:33;;;;;;;23.40;12.93;;;;;;;;;;5013354;28;20216;-70
2021/11/17 06:12:59;;;;;;;24.40;12.83;;;;;;;;;;5022481;28;20269;-72
2021/11/17 06:15:26;;;;;;;21.17;11.40;;;;;;;;;;5013158;28;20215;-72
2021/11/17 06:17:56;;;;;;;21.47;11.20;;;;;;;;;;5013782;28;20605;-72
2021/11/17 06:20:21;;;;;;;20.77;11.73;;;;;;;;;;5011355;28;20266;-73
2021/11/17 06:22:56;;;;;;;18.63;11.03;;;;;;;;;;4996593;28;20696;-72
2021/11/17 06:25:22;;;;;;;21.53;12.03;;;;;;;;;;4980539;28;20298;-72
2021/11/17 06:27:54;;;;;;;22.83;13.17;;;;;;;;;;5028559;28;20304;-72
2021/11/17 06:30:20;;;;;;;22.47;12.43;;;;;;;;;;5029393;28;20266;-72
2021/11/17 06:32:51;;;;;;;20.90;11.50;;;;;;;;;;5010484;28;20217;-72
2021/11/17 06:35:21;;;;;;;20.43;11.40;;;;;;;;;;5027943;28;20635;-72
2021/11/17 06:37:47;;;;;;;22.80;11.53;;;;;;;;;;5030568;28;20231;-72
2021/11/17 06:40:15;;;;;;;19.83;10.97;;;;;;;;;;5028742;28;20674;-71
2021/11/17 06:42:45;;;;;;;21.80;12.63;;;;;;;;;;5040906;28;20216;-71
2021/11/17 06:45:23;;;;;;;20.77;12.00;;;;;;;;;;5028612;28;20212;-70
2021/11/17 06:47:51;;;;;;;22.97;12.10;;;;;;;;;;5028938;28;20224;-71
2021/11/17 06:50:19;;;;;;;26.83;13.53;;;;;;;;;;5016555;28;20232;-72
2021/11/17 06:52:45;;;;;;;23.67;13.57;;;;;;;;;;5031329;28;20274;-72
2021/11/17 06:55:11;;;;;;;22.50;12.53;;;;;;;;;;5028742;28;20302;-73
2021/11/17 06:57:42;;;;;;;21.47;11.67;;;;;;;;;;5030705;28;20294;-73
2021/11/17 07:00:12;;;;;;;21.20;12.07;;;;;;;;;;4996539;28;20220;-72
2021/11/17 07:02:38;;;;;;;20.60;11.73;;;;;;;;;;5027015;28;20209;-71
2021/11/17 07:05:04;;;;;;;20.20;11.80;;;;;;;;;;5004872;28;20641;-72
2021/11/17 07:07:30;;;;;;;19.93;11.67;;;;;;;;;;4997683;28;20254;-71
2021/11/17 07:09:56;;;;;;;20.07;11.33;;;;;;;;;;5028962;28;20243;-72
2021/11/17 07:12:26;;;;;;;23.37;11.50;;;;;;;;;;5031383;28;20610;-72
2021/11/17 07:14:52;;;;;;;24.50;12.40;;;;;;;;;;5029397;28;20253;-73
2021/11/17 07:17:41;;;;;;;20.20;11.57;;;;;;;;;;4999519;28;20227;-72
2021/11/17 07:23:03;;;;;;;23.87;13.67;;;;;;;;;;5015740;28;20705;-72
2021/11/17 07:25:29;;;;;;;23.40;13.73;;;;;;;;;;5030805;28;20226;-72
2021/11/17 07:27:58;;;;;;;23.03;13.37;;;;;;;;;;5015441;28;20593;-73
2021/11/17 07:30:28;;;;;;;24.10;12.83;;;;;;;;;;5031046;28;20216;-71
2021/11/17 07:32:53;;;;;;;27.13;15.10;;;;;;;;;;5030919;28;20745;-72
2021/11/17 07:35:21;;;;;;;26.90;14.23;;;;;;;;;;5010240;28;20232;-72
2021/11/17 07:37:46;;;;;;;24.40;14.53;;;;;;;;;;4996236;28;20296;-70
2021/11/17 07:40:12;;;;;;;23.27;14.33;;;;;;;;;;5027464;28;20278;-72
2021/11/17 07:42:38;;;;;;;22.93;12.53;;;;;;;;;;5016497;28;20219;-71
2021/11/17 07:45:07;;;;;;;24.47;13.23;;;;;;;;;;5033183;28;20709;-72
2021/11/17 07:47:35;;;;;;;22.07;12.50;;;;;;;;;;5034075;28;20273;-72
2021/11/17 07:50:05;;;;;;;20.17;11.30;;;;;;;;;;5026934;28;20314;-72
2021/11/17 07:52:31;;;;;;;26.27;14.00;;;;;;;;;;5049476;28;20223;-72
2021/11/17 07:54:59;;;;;;;24.10;12.87;;;;;;;;;;5041001;28;20283;-71
2021/11/17 07:57:27;;;;;;;23.70;12.93;;;;;;;;;;5031568;28;20224;-72
2021/11/17 07:59:55;;;;;;;24.23;13.10;;;;;;;;;;5031443;28;20239;-74
2021/11/17 08:02:23;;;;;;;27.17;14.33;;;;;;;;;;5015043;28;20223;-72
2021/11/17 08:04:49;;;;;;;25.53;14.33;;;;;;;;;;5031657;28;20709;-72
2021/11/17 08:07:19;;;;;;;26.77;13.23;;;;;;;;;;4998458;28;20318;-72
2021/11/17 08:09:45;;;;;;;28.43;14.33;;;;;;;;;;5015656;28;20315;-71
2021/11/17 08:12:10;;;;;;;29.37;15.07;;;;;;;;;;5015080;28;20212;-72
2021/11/17 08:14:36;;;;;;;28.23;15.27;;;;;;;;;;4995204;28;20242;-73
2021/11/17 08:17:03;;;;;;;28.60;14.60;;;;;;;;;;5006524;28;20302;-71
2021/11/17 08:19:29;;;;;;;28.90;14.33;;;;;;;;;;5025163;28;20223;-73
2021/11/17 08:21:55;;;;;;;28.67;15.17;;;;;;;;;;5041641;28;20220;-71
2021/11/17 08:24:21;;;;;;;26.77;14.23;;;;;;;;;;4995886;28;20290;-72
2021/11/17 08:26:49;;;;;;;25.67;15.07;;;;;;;;;;5031640;28;20212;-71
2021/11/17 08:29:14;;;;;;;25.60;14.00;;;;;;;;;;5030975;28;20258;-73
2021/11/17 08:31:40;;;;;;;29.13;14.47;;;;;;;;;;5014564;28;20216;-72
2021/11/17 08:34:07;;;;;;;26.97;14.60;;;;;;;;;;5014668;28;20698;-72
2021/11/17 08:36:33;;;;;;;27.87;15.10;;;;;;;;;;5030995;28;20648;-72
2021/11/17 08:39:01;;;;;;;27.17;14.47;;;;;;;;;;5033529;28;20212;-72
2021/11/17 08:41:30;;;;;;;29.60;14.53;;;;;;;;;;5031729;28;20246;-72
2021/11/17 08:43:56;;;;;;;29.90;15.37;;;;;;;;;;5006786;28;20231;-73
2021/11/17 08:46:22;;;;;;;28.77;15.67;;;;;;;;;;5047217;28;20224;-73
2021/11/17 08:48:47;;;;;;;34.53;15.30;;;;;;;;;;5032093;28;20311;-73
2021/11/17 08:51:15;;;;;;;31.97;14.93;;;;;;;;;;5035506;28;20227;-72
2021/11/17 08:53:42;;;;;;;27.87;15.13;;;;;;;;;;5002407;28;20227;-74
2021/11/17 08:56:08;;;;;;;27.60;15.37;;;;;;;;;;5029784;28;20281;-74
2021/11/17 08:58:36;;;;;;;27.37;14.97;;;;;;;;;;5030222;28;20224;-72
2021/11/17 09:01:05;;;;;;;28.90;15.17;;;;;;;;;;5011199;28;20228;-72
2021/11/17 09:03:34;;;;;;;29.20;15.43;;;;;;;;;;5010824;28;20784;-71
2021/11/17 09:06:00;;;;;;;31.03;15.30;;;;;;;;;;5012777;28;20224;-72
2021/11/17 09:08:26;;;;;;;28.47;15.00;;;;;;;;;;4997759;28;20339;-73
2021/11/17 09:10:56;;;;;;;32.93;14.97;;;;;;;;;;5030376;28;20220;-71
2021/11/17 09:13:21;;;;;;;28.60;15.90;;;;;;;;;;5005705;28;20231;-71
2021/11/17 09:15:49;;;;;;;26.03;14.80;;;;;;;;;;5012624;28;20219;-72
2021/11/17 09:18:17;;;;;;;31.20;16.03;;;;;;;;;;5009253;28;20221;-72
2021/11/17 09:20:43;;;;;;;29.00;15.43;;;;;;;;;;5010693;28;20259;-72
2021/11/17 09:23:13;;;;;;;27.23;15.23;;;;;;;;;;5012206;28;20224;-72
2021/11/17 09:25:39;;;;;;;25.60;14.57;;;;;;;;;;5010366;28;20307;-73
2021/11/17 09:28:06;;;;;;;27.17;15.07;;;;;;;;;;4993703;28;20236;-72
2021/11/17 09:30:32;;;;;;;29.40;15.60;;;;;;;;;;5014202;28;20270;-73
2021/11/17 09:32:58;;;;;;;30.23;15.40;;;;;;;;;;5030084;28;20224;-72
2021/11/17 09:35:30;;;;;;;26.03;14.60;;;;;;;;;;5029344;28;20211;-72
2021/11/17 09:37:59;;;;;;;26.90;15.03;;;;;;;;;;5015071;28;20236;-74
2021/11/17 09:40:30;;;;;;;26.93;16.03;;;;;;;;;;5029738;28;20216;-73
2021/11/17 09:42:58;;;;;;;28.00;16.67;;;;;;;;;;5029499;28;20220;-74
2021/11/17 09:45:24;;;;;;;37.60;20.97;;;;;;;;;;5018969;28;20302;-73
2021/11/17 09:47:55;;;;;;;37.63;24.10;;;;;;;;;;5047367;28;20219;-73
2021/11/17 09:50:20;;;;;;;31.20;17.87;;;;;;;;;;5033040;28;20247;-73
2021/11/17 09:52:59;;;;;;;25.40;14.87;;;;;;;;;;5046386;28;20262;-74
2021/11/17 09:55:26;;;;;;;25.17;14.13;;;;;;;;;;5014189;28;20689;-72
2021/11/17 09:58:13;;;;;;;26.47;15.37;;;;;;;;;;5010281;28;20308;-74
2021/11/17 10:00:49;;;;;;;25.97;14.00;;;;;;;;;;5010863;28;20232;-72
2021/11/17 10:03:33;;;;;;;23.70;14.13;;;;;;;;;;5012432;28;20259;-73
2021/11/17 10:14:21;;;;;;;26.00;13.67;;;;;;;;;;5019630;28;20782;-73
2021/11/17 10:16:48;;;;;;;21.67;13.00;;;;;;;;;;5033674;28;20232;-74
2021/11/17 10:19:15;;;;;;;25.80;14.37;;;;;;;;;;5012723;28;20228;-73
2021/11/17 10:21:41;;;;;;;22.33;13.73;;;;;;;;;;5026994;28;20706;-73
2021/11/17 10:24:10;;;;;;;27.27;15.67;;;;;;;;;;5029288;28;20307;-73
2021/11/17 10:26:50;;;;;;;23.37;13.40;;;;;;;;;;5023845;28;20270;-73
2021/11/17 10:29:35;;;;;;;22.30;13.30;;;;;;;;;;5029597;28;20212;-74
2021/11/17 10:32:13;;;;;;;23.83;13.53;;;;;;;;;;4999161;28;20228;-74
2021/11/17 10:35:01;;;;;;;24.17;13.93;;;;;;;;;;5028461;28;20223;-73
2021/11/17 10:37:45;;;;;;;23.60;14.13;;;;;;;;;;5014486;28;20226;-72
2021/11/17 10:40:22;;;;;;;22.80;13.47;;;;;;;;;;5028891;28;20315;-73
2021/11/17 10:43:15;;;;;;;21.97;12.97;;;;;;;;;;4988073;28;20216;-72
2021/11/17 10:45:48;;;;;;;25.10;13.43;;;;;;;;;;5040114;28;20219;-73
2021/11/17 10:48:19;;;;;;;21.50;13.40;;;;;;;;;;5059152;28;20295;-74
2021/11/17 10:50:49;;;;;;;22.70;13.50;;;;;;;;;;5063070;28;20220;-72
2021/11/17 10:53:29;;;;;;;24.90;15.03;;;;;;;;;;5031553;28;20223;-74
2021/11/17 10:55:59;;;;;;;23.50;13.77;;;;;;;;;;5012485;28;20280;-73
2021/11/17 10:58:27;;;;;;;25.47;14.67;;;;;;;;;;5009280;28;20274;-73
2021/11/17 11:01:01;;;;;;;25.93;15.17;;;;;;;;;;5044984;28;20219;-72
2021/11/17 11:03:29;;;;;;;25.63;14.33;;;;;;;;;;5028790;28;20247;-72
2021/11/17 11:06:03;;;;;;;26.60;15.40;;;;;;;;;;4989777;28;20227;-73
2021/11/17 11:08:40;;;;;;;26.40;14.87;;;;;;;;;;5014994;28;20223;-73
2021/11/17 11:11:06;;;;;;;26.77;15.30;;;;;;;;;;5003167;28;20216;-72
2021/11/17 11:13:35;;;;;;;27.27;15.97;;;;;;;;;;5016233;28;20370;-75
2021/11/17 11:16:16;;;;;;;27.43;15.33;;;;;;;;;;5026303;28;20215;-75
2021/11/17 11:19:14;;;;;;;25.23;15.97;;;;;;;;;;5001433;28;20753;-72
2021/11/17 11:21:43;;;;;;;27.73;16.87;;;;;;;;;;5035464;28;20231;-72
2021/11/17 11:24:26;;;;;;;32.17;18.37;;;;;;;;;;5029625;28;20330;-74
2021/11/17 11:26:58;;;;;;;25.33;16.93;;;;;;;;;;5014534;28;20835;-73
2021/11/17 11:29:29;;;;;;;28.13;17.20;;;;;;;;;;5030956;28;20625;-72
2021/11/17 11:32:08;;;;;;;30.93;19.10;;;;;;;;;;5016665;28;20871;-73
2021/11/17 11:34:38;;;;;;;33.00;19.93;;;;;;;;;;4980600;28;20293;-73
2021/11/17 11:37:24;;;;;;;31.73;19.60;;;;;;;;;;4979712;28;20224;-72
2021/11/17 11:40:14;;;;;;;31.80;19.27;;;;;;;;;;5012576;28;20320;-72
2021/11/17 11:42:58;;;;;;;35.17;19.47;;;;;;;;;;4991734;28;20216;-72
2021/11/17 11:45:25;;;;;;;36.50;19.80;;;;;;;;;;5033544;28;20220;-71
2021/11/17 11:48:05;;;;;;;28.33;18.67;;;;;;;;;;5034321;28;20204;-73
2021/11/17 11:50:30;;;;;;;30.87;18.57;;;;;;;;;;5032577;28;20357;-73
2021/11/17 11:53:06;;;;;;;32.33;20.17;;;;;;;;;;5032226;28;20311;-74
2021/11/17 11:55:52;;;;;;;31.43;19.07;;;;;;;;;;5030038;28;20230;-72
2021/11/17 11:58:21;;;;;;;35.43;21.23;;;;;;;;;;5025884;28;20307;-72
2021/11/17 12:01:00;;;;;;;34.43;21.07;;;;;;;;;;5031461;28;20264;-73
2021/11/17 12:03:34;;;;;;;35.73;20.63;;;;;;;;;;5031562;28;20223;-72
2021/11/17 12:06:04;;;;;;;37.33;21.30;;;;;;;;;;5014144;28;20233;-73
2021/11/17 12:08:45;;;;;;;39.37;21.63;;;;;;;;;;5014400;28;20226;-74
2021/11/17 12:11:21;;;;;;;40.37;21.60;;;;;;;;;;4998072;28;20221;-72
2021/11/17 12:14:06;;;;;;;41.20;22.97;;;;;;;;;;5048166;28;20223;-72
2021/11/17 12:16:44;;;;;;;38.17;22.60;;;;;;;;;;5007605;28;20246;-73
2021/11/17 12:19:30;;;;;;;39.40;23.67;;;;;;;;;;5027421;28;20220;-72
2021/11/17 12:22:01;;;;;;;43.73;25.83;;;;;;;;;;5012620;28;20228;-73
2021/11/17 12:24:32;;;;;;;40.13;24.23;;;;;;;;;;5028220;28;20319;-70
2021/11/17 12:27:09;;;;;;;46.53;24.93;;;;;;;;;;5015222;28;20228;-73
2021/11/17 12:29:57;;;;;;;50.27;26.80;;;;;;;;;;5032250;28;20227;-72
2021/11/17 12:32:38;;;;;;;50.57;27.43;;;;;;;;;;5031036;28;20763;-72
2021/11/17 12:35:20;;;;;;;54.23;28.70;;;;;;;;;;5030686;28;20227;-73
2021/11/17 12:37:49;;;;;;;54.67;27.33;;;;;;;;;;5032601;28;20230;-73
2021/11/17 12:40:39;;;;;;;47.77;27.57;;;;;;;;;;5013973;28;20259;-72
2021/11/17 12:43:10;;;;;;;61.13;29.47;;;;;;;;;;5016671;28;20228;-72
2021/11/17 12:45:46;;;;;;;52.07;29.47;;;;;;;;;;5023122;28;20277;-72
2021/11/17 12:48:24;;;;;;;53.17;29.70;;;;;;;;;;5011557;28;20225;-72
2021/11/17 12:51:01;;;;;;;51.23;30.47;;;;;;;;;;5027646;28;20625;-73
2021/11/17 12:53:57;;;;;;;58.80;31.10;;;;;;;;;;4996799;28;20697;-72
2021/11/17 12:56:46;;;;;;;50.17;30.53;;;;;;;;;;5026061;28;20607;-73
2021/11/17 12:59:25;;;;;;;61.57;30.30;;;;;;;;;;5025916;28;20937;-74
2021/11/17 13:01:52;;;;;;;56.83;30.73;;;;;;;;;;5007316;28;20228;-74
2021/11/17 13:04:31;;;;;;;57.83;32.67;;;;;;;;;;5013510;28;20303;-72
2021/11/17 13:07:02;;;;;;;59.73;32.33;;;;;;;;;;5015229;28;20219;-73
2021/11/17 13:09:54;;;;;;;54.37;31.57;;;;;;;;;;5030175;28;20216;-72
2021/11/17 13:12:29;;;;;;;60.53;32.43;;;;;;;;;;5031055;28;20227;-73
2021/11/17 13:15:07;;;;;;;61.80;34.97;;;;;;;;;;5021849;28;20323;-74
2021/11/17 13:17:33;;;;;;;66.43;35.57;;;;;;;;;;5012563;28;20216;-74
2021/11/17 13:20:21;;;;;;;60.60;33.50;;;;;;;;;;5029122;28;20231;-73
2021/11/17 13:22:52;;;;;;;60.63;33.83;;;;;;;;;;5009756;28;20583;-71
2021/11/17 13:25:50;;;;;;;59.27;31.97;;;;;;;;;;5028864;28;20788;-72
2021/11/17 13:28:41;;;;;;;56.70;32.27;;;;;;;;;;5034903;28;20220;-71
2021/11/17 13:31:32;;;;;;;57.60;32.60;;;;;;;;;;5012522;28;20227;-72
2021/11/17 13:34:09;;;;;;;59.07;33.97;;;;;;;;;;5029219;28;20235;-71
2021/11/17 13:36:50;;;;;;;60.63;34.57;;;;;;;;;;5015719;28;20231;-71
2021/11/17 13:39:21;;;;;;;65.53;36.70;;;;;;;;;;5011526;28;20247;-72
2021/11/17 13:41:50;;;;;;;55.83;33.63;;;;;;;;;;5013344;28;20232;-73
2021/11/17 13:44:20;;;;;;;62.23;34.00;;;;;;;;;;5008906;28;21024;-72
2021/11/17 13:46:54;;;;;;;52.77;32.67;;;;;;;;;;5031238;28;20812;-71
2021/11/17 13:49:22;;;;;;;55.60;32.80;;;;;;;;;;5045589;28;20212;-71
2021/11/17 13:51:47;;;;;;;48.57;28.50;;;;;;;;;;5011451;28;20266;-71
2021/11/17 13:54:13;;;;;;;53.10;29.80;;;;;;;;;;5021953;28;20304;-72
2021/11/17 13:56:39;;;;;;;49.37;29.43;;;;;;;;;;5019033;28;20239;-73
2021/11/17 13:59:04;;;;;;;48.77;28.03;;;;;;;;;;4997857;28;20265;-72
2021/11/17 14:01:30;;;;;;;50.47;28.73;;;;;;;;;;5013841;28;20709;-72
2021/11/17 14:03:56;;;;;;;47.63;29.73;;;;;;;;;;5007132;28;20346;-71
2021/11/17 14:06:22;;;;;;;45.70;27.10;;;;;;;;;;5020825;28;21684;-73
2021/11/17 14:08:48;;;;;;;48.23;26.30;;;;;;;;;;5011885;28;20211;-72
2021/11/17 14:11:15;;;;;;;42.50;25.77;;;;;;;;;;4996963;28;20413;-72
2021/11/17 14:13:41;;;;;;;45.97;27.23;;;;;;;;;;5013723;28;20223;-72
2021/11/17 14:16:07;;;;;;;41.80;24.37;;;;;;;;;;5011348;28;20219;-73
2021/11/17 14:18:32;;;;;;;38.67;24.33;;;;;;;;;;5026218;28;20324;-72
2021/11/17 14:21:01;;;;;;;39.77;24.13;;;;;;;;;;5012558;28;20238;-73
2021/11/17 14:23:26;;;;;;;41.70;23.27;;;;;;;;;;5009937;28;20318;-71
2021/11/17 14:25:52;;;;;;;35.90;21.37;;;;;;;;;;5020229;28;20689;-72
2021/11/17 14:28:27;;;;;;;41.17;23.03;;;;;;;;;;5011552;28;20224;-72
2021/11/17 14:31:21;;;;;;;39.70;20.10;;;;;;;;;;5012112;28;20212;-73
2021/11/17 14:33:50;;;;;;;37.43;21.17;;;;;;;;;;5016553;28;20282;-72
2021/11/17 14:36:17;;;;;;;36.47;21.53;;;;;;;;;;4984803;28;20220;-71
2021/11/17 14:38:43;;;;;;;37.23;21.80;;;;;;;;;;5011520;28;20217;-71
2021/11/17 14:41:11;;;;;;;35.70;21.33;;;;;;;;;;5025523;28;20225;-71
2021/11/17 14:43:38;;;;;;;38.47;22.83;;;;;;;;;;5026366;28;20220;-73
2021/11/17 14:46:05;;;;;;;35.83;22.73;;;;;;;;;;5028071;28;20208;-73
2021/11/17 14:48:32;;;;;;;36.50;22.57;;;;;;;;;;4995652;28;20223;-74
2021/11/17 14:50:58;;;;;;;38.77;22.30;;;;;;;;;;5012430;28;20216;-73
2021/11/17 14:53:23;;;;;;;39.77;22.63;;;;;;;;;;5024031;28;20230;-72
2021/11/17 14:55:49;;;;;;;34.97;20.60;;;;;;;;;;5034719;28;20269;-74
2021/11/17 14:58:15;;;;;;;33.13;19.53;;;;;;;;;;5031656;28;20606;-73
2021/11/17 15:00:54;;;;;;;36.77;21.70;;;;;;;;;;5014180;28;20224;-73
2021/11/17 15:03:20;;;;;;;30.63;19.27;;;;;;;;;;5014263;28;20236;-72
2021/11/17 15:05:45;;;;;;;32.87;18.50;;;;;;;;;;5028513;28;20228;-73
2021/11/17 15:08:11;;;;;;;36.40;20.00;;;;;;;;;;5013129;28;20353;-72
2021/11/17 15:10:36;;;;;;;33.63;18.27;;;;;;;;;;5028908;28;20224;-73
2021/11/17 15:13:02;;;;;;;32.50;19.50;;;;;;;;;;5020107;28;20219;-72
2021/11/17 15:15:31;;;;;;;31.23;18.30;;;;;;;;;;4996403;28;20584;-72
2021/11/17 15:17:59;;;;;;;37.13;19.80;;;;;;;;;;5013435;28;20220;-72
2021/11/17 15:20:27;;;;;;;30.87;19.00;;;;;;;;;;5018995;28;20243;-72
2021/11/17 15:22:52;;;;;;;32.60;18.70;;;;;;;;;;4999485;28;20236;-72
2021/11/17 15:25:29;;;;;;;33.20;19.80;;;;;;;;;;5006904;28;20660;-72
2021/11/17 15:28:09;;;;;;;30.97;18.07;;;;;;;;;;5018016;28;20215;-73
2021/11/17 15:30:45;;;;;;;37.63;18.50;;;;;;;;;;5027556;28;20211;-72
2021/11/17 15:33:11;;;;;;;33.67;19.57;;;;;;;;;;5029227;28;20231;-72
2021/11/17 15:35:41;;;;;;;26.17;17.37;;;;;;;;;;5008576;28;20678;-72
2021/11/17 15:38:09;;;;;;;35.83;19.20;;;;;;;;;;5041735;28;20216;-73
2021/11/17 15:40:38;;;;;;;30.87;17.80;;;;;;;;;;5013002;28;20224;-73
2021/11/17 15:43:03;;;;;;;35.40;18.57;;;;;;;;;;5013908;28;20226;-73
2021/11/17 15:45:32;;;;;;;36.80;19.23;;;;;;;;;;5015262;28;20216;-73
2021/11/17 15:48:00;;;;;;;31.63;19.30;;;;;;;;;;5030662;28;20216;-73
2021/11/17 15:50:39;;;;;;;36.63;20.23;;;;;;;;;;4995435;28;20221;-73
2021/11/17 15:53:05;;;;;;;35.13;18.77;;;;;;;;;;5009896;28;20220;-73
2021/11/17 15:55:33;;;;;;;31.63;19.67;;;;;;;;;;5022254;28;20219;-73
2021/11/17 15:57:58;;;;;;;36.43;19.40;;;;;;;;;;5019327;28;20319;-72
2021/11/17 16:00:27;;;;;;;35.17;18.07;;;;;;;;;;4996081;28;20221;-72
2021/11/17 16:02:52;;;;;;;31.93;18.33;;;;;;;;;;5011458;28;20227;-73
2021/11/17 16:05:18;;;;;;;33.17;18.40;;;;;;;;;;5014691;28;20216;-73
2021/11/17 16:07:46;;;;;;;32.23;18.40;;;;;;;;;;5015914;28;20220;-73
2021/11/17 16:10:14;;;;;;;32.03;18.37;;;;;;;;;;5031336;28;20213;-73
2021/11/17 16:12:41;;;;;;;35.90;18.03;;;;;;;;;;5015963;28;20315;-73
2021/11/17 16:15:09;;;;;;;35.17;18.83;;;;;;;;;;5009232;28;20212;-73
2021/11/17 16:17:37;;;;;;;34.37;18.57;;;;;;;;;;5015940;28;20702;-73
2021/11/17 16:20:10;;;;;;;45.90;20.57;;;;;;;;;;5018581;28;20219;-73
2021/11/17 16:22:40;;;;;;;53.50;28.07;;;;;;;;;;5018978;28;20355;-72
2021/11/17 16:27:57;;;;;;;39.63;20.10;;;;;;;;;;5013404;28;20220;-74
2021/11/17 16:30:23;;;;;;;34.43;18.37;;;;;;;;;;5003087;28;20216;-74
2021/11/17 16:32:49;;;;;;;36.23;18.63;;;;;;;;;;5020835;28;20213;-73
2021/11/17 16:35:17;;;;;;;31.80;18.23;;;;;;;;;;5018652;28;20223;-73
2021/11/17 16:37:45;;;;;;;39.57;18.97;;;;;;;;;;5029029;28;20215;-73
2021/11/17 16:40:14;;;;;;;39.03;19.30;;;;;;;;;;5006567;28;20260;-73
2021/11/17 16:42:39;;;;;;;31.30;17.93;;;;;;;;;;5023780;28;20218;-73
2021/11/17 16:45:08;;;;;;;31.90;17.97;;;;;;;;;;5005966;28;20220;-73
2021/11/17 16:47:34;;;;;;;34.60;17.63;;;;;;;;;;5013421;28;20219;-74
2021/11/17 16:50:00;;;;;;;36.57;18.33;;;;;;;;;;5017397;28;20232;-73
2021/11/17 16:52:32;;;;;;;35.53;18.80;;;;;;;;;;5014167;28;20244;-74
2021/11/17 16:55:00;;;;;;;34.87;18.17;;;;;;;;;;5013841;28;20299;-72
2021/11/17 16:57:28;;;;;;;35.67;17.93;;;;;;;;;;4997483;28;20216;-72
2021/11/17 16:59:53;;;;;;;36.83;17.57;;;;;;;;;;5028940;28;20220;-72
2021/11/17 17:02:20;;;;;;;36.63;18.17;;;;;;;;;;4997255;28;20235;-73
2021/11/17 17:04:49;;;;;;;35.73;19.67;;;;;;;;;;4997679;28;20222;-72
2021/11/17 17:07:15;;;;;;;42.47;18.63;;;;;;;;;;5014077;28;20308;-74
2021/11/17 17:09:46;;;;;;;35.43;19.17;;;;;;;;;;5046487;28;20220;-72
2021/11/17 17:12:12;;;;;;;41.67;18.53;;;;;;;;;;5030030;28;20230;-73
2021/11/17 17:14:40;;;;;;;32.07;18.43;;;;;;;;;;5037940;28;20227;-73
2021/11/17 17:17:08;;;;;;;41.37;18.80;;;;;;;;;;5033799;28;20231;-73
2021/11/17 17:19:34;;;;;;;31.80;16.70;;;;;;;;;;5046611;28;20230;-74
2021/11/17 17:21:59;;;;;;;35.43;17.37;;;;;;;;;;5013672;28;20242;-72
2021/11/17 17:24:25;;;;;;;36.70;17.97;;;;;;;;;;5029508;28;21027;-73
2021/11/17 17:26:53;;;;;;;37.10;17.63;;;;;;;;;;5012741;28;20600;-72
2021/11/17 17:29:24;;;;;;;35.27;17.77;;;;;;;;;;5029677;28;20223;-72
2021/11/17 17:31:54;;;;;;;38.57;18.80;;;;;;;;;;5014123;28;20584;-74
2021/11/17 17:34:22;;;;;;;44.60;19.37;;;;;;;;;;5004646;28;20278;-71
2021/11/17 17:36:47;;;;;;;37.00;17.20;;;;;;;;;;4997209;28;20743;-72
2021/11/17 17:39:13;;;;;;;34.60;18.23;;;;;;;;;;5012752;28;20212;-73